Terminal Aerodrome Forecast
Issued by NWS

Home | Current Version | Previous Version | Text Only | Print | Product List | Glossary On
Versions: 1 2 3 4 5 6 7 8 9 10 11 12 13 14
341
FTUS46 KPDT 302343 AAA
TAFPSC
TAF AMD
KPSC 302343Z 0100/0124 06008G15KT P6SM FEW060 OVC080
     FM010400 VRB04KT P6SM FEW060
     FM011400 33006KT P6SM SKC
     FM011800 36010KT P6SM FEW250=

USA.gov is the U.S. government's official web portal to all federal, state and local government web resources and services.